Time;durP1;ratioP1;P1;durP2;ratioP2;P2;SDS_P1;SDS_P2;PMS_P1;PMS_P2;Temp;Humidity;BMP_temperature;BMP_pressure;BME280_temperature;BME280_humidity;BME280_pressure;Samples;Min_cycle;Max_cycle;Signal;HPM_P1;HPM_P2
2023/03/12 00:00:55;;;;;;;0.88;0.88;;;-0.40;92.50;;;;;;5068073;28;20223;-68
2023/03/12 00:03:24;;;;;;;1.65;1.05;;;-0.50;99.90;;;;;;5066271;28;20191;-69
2023/03/12 00:05:53;;;;;;;1.05;1.02;;;-0.40;93.40;;;;;;5067552;28;20219;-68
2023/03/12 00:08:20;;;;;;;2.83;2.63;;;-0.50;99.90;;;;;;5066134;28;20242;-67
2023/03/12 00:10:47;;;;;;;1.20;1.20;;;-0.50;93.30;;;;;;5066164;28;20215;-67
2023/03/12 00:13:13;;;;;;;1.50;1.25;;;-0.50;93.40;;;;;;5065790;28;20203;-68
2023/03/12 00:15:40;;;;;;;3.70;1.80;;;;;;;;;;5066307;28;20222;-68
2023/03/12 00:18:07;;;;;;;1.10;1.05;;;-0.80;99.40;;;;;;5066166;28;20194;-68
2023/03/12 00:20:34;;;;;;;1.00;0.90;;;-0.40;93.80;;;;;;5065438;28;20215;-68
2023/03/12 00:23:02;;;;;;;1.27;1.17;;;-0.50;99.90;;;;;;5066303;28;20191;-67
2023/03/12 00:25:29;;;;;;;1.25;1.15;;;-0.40;93.40;;;;;;5066023;28;20738;-67
2023/03/12 00:27:56;;;;;;;0.75;0.75;;;-0.40;99.90;;;;;;5067072;28;20204;-68
2023/03/12 00:30:23;;;;;;;0.60;0.60;;;-0.40;93.40;;;;;;5066277;28;20219;-68
2023/03/12 00:32:49;;;;;;;0.95;0.95;;;-0.40;93.40;;;;;;5068211;28;20198;-67
2023/03/12 00:35:16;;;;;;;0.47;0.47;;;-0.30;99.90;;;;;;5066748;28;20187;-68
2023/03/12 00:37:43;;;;;;;0.93;0.93;;;;;;;;;;5065496;28;20212;-68
2023/03/12 00:40:13;;;;;;;3.70;0.70;;;-0.20;98.70;;;;;;5065876;28;20195;-67
2023/03/12 00:42:40;;;;;;;0.85;0.85;;;-0.30;99.90;;;;;;5066548;28;20191;-68
2023/03/12 00:45:08;;;;;;;0.95;0.90;;;-0.30;99.20;;;;;;5066672;28;20215;-67
2023/03/12 00:47:35;;;;;;;0.65;0.65;;;0.00;99.90;;;;;;5066644;28;20199;-67
2023/03/12 00:50:01;;;;;;;2.10;2.00;;;-0.30;93.30;;;;;;5065905;28;20205;-67
2023/03/12 00:52:28;;;;;;;1.30;1.30;;;-0.20;93.20;;;;;;5066781;28;20203;-68
2023/03/12 00:54:57;;;;;;;1.23;1.13;;;;;;;;;;5066104;28;20188;-67
2023/03/12 00:57:25;;;;;;;0.80;0.80;;;-0.20;99.90;;;;;;5063579;28;20216;-68
2023/03/12 00:59:52;;;;;;;1.27;1.17;;;-0.20;99.90;;;;;;5065836;28;20204;-69
2023/03/12 01:02:19;;;;;;;0.60;0.47;;;-0.20;93.30;;;;;;5066832;28;20223;-67
2023/03/12 01:04:46;;;;;;;2.85;1.52;;;-0.10;93.30;;;;;;5066617;28;20685;-68
2023/03/12 01:07:12;;;;;;;1.10;0.90;;;-0.20;93.30;;;;;;5066420;28;20229;-69
2023/03/12 01:09:39;;;;;;;0.57;0.57;;;-0.20;92.90;;;;;;5065988;28;20274;-68
2023/03/12 01:12:06;;;;;;;0.30;0.30;;;-0.10;92.80;;;;;;5065450;28;20553;-67
2023/03/12 01:14:34;;;;;;;0.55;0.55;;;-0.10;93.00;;;;;;5066997;28;20203;-67
2023/03/12 01:17:01;;;;;;;1.13;1.13;;;-0.10;93.40;;;;;;5066077;28;20219;-68
2023/03/12 01:19:28;;;;;;;0.95;0.60;;;-0.10;93.50;;;;;;5065425;28;20195;-67
2023/03/12 01:21:55;;;;;;;0.70;0.70;;;-0.10;93.30;;;;;;5061942;28;20211;-68
2023/03/12 01:24:21;;;;;;;1.13;0.90;;;-0.10;93.40;;;;;;5067154;28;20719;-67
2023/03/12 01:26:48;;;;;;;0.98;0.85;;;-0.10;93.50;;;;;;5065239;28;20640;-68
2023/03/12 01:29:15;;;;;;;0.45;0.45;;;-0.20;94.20;;;;;;5066048;28;20644;-67
2023/03/12 01:31:43;;;;;;;2.35;1.17;;;-0.20;94.10;;;;;;5066703;28;20215;-68
2023/03/12 01:34:11;;;;;;;0.50;0.50;;;-0.20;94.00;;;;;;5066516;28;20188;-67
2023/03/12 01:36:38;;;;;;;5.53;1.33;;;-0.10;93.60;;;;;;5066275;28;20215;-67
2023/03/12 01:39:05;;;;;;;2.70;1.10;;;0.00;93.40;;;;;;5064668;28;20202;-68
2023/03/12 01:41:33;;;;;;;0.70;0.70;;;0.00;93.30;;;;;;5063567;28;20226;-67
2023/03/12 01:44:02;;;;;;;1.10;1.10;;;0.10;93.40;;;;;;5065044;28;20203;-68
2023/03/12 01:46:32;;;;;;;0.60;0.60;;;0.10;93.30;;;;;;5066579;28;20211;-67
2023/03/12 01:49:05;;;;;;;0.93;0.93;;;0.10;93.40;;;;;;5065992;28;20854;-68
2023/03/12 01:51:36;;;;;;;0.82;0.82;;;0.20;93.30;;;;;;5065469;28;20225;-69
2023/03/12 01:54:08;;;;;;;1.55;1.55;;;0.30;93.20;;;;;;5065842;28;20191;-68
2023/03/12 01:56:37;;;;;;;1.75;1.23;;;0.30;92.90;;;;;;5065652;28;20242;-67
2023/03/12 01:59:09;;;;;;;0.85;0.85;;;0.40;92.60;;;;;;5065418;28;20588;-69
2023/03/12 02:01:37;;;;;;;0.70;0.70;;;0.40;92.00;;;;;;5065095;28;20219;-69
2023/03/12 02:04:05;;;;;;;1.15;1.05;;;0.10;98.90;;;;;;5065807;28;20192;-68
2023/03/12 02:06:38;;;;;;;1.77;1.67;;;0.40;92.20;;;;;;5066445;28;20294;-68
2023/03/12 02:09:06;;;;;;;2.33;2.22;;;0.40;92.60;;;;;;5068423;28;20205;-67
2023/03/12 02:11:33;;;;;;;0.80;0.80;;;0.40;92.30;;;;;;5069252;28;20211;-68
2023/03/12 02:14:02;;;;;;;0.98;0.98;;;0.50;91.90;;;;;;5070678;28;20199;-68
2023/03/12 02:16:30;;;;;;;0.70;0.70;;;0.50;91.50;;;;;;5069203;28;20215;-68
2023/03/12 02:19:01;;;;;;;0.98;0.98;;;0.60;91.20;;;;;;5068951;28;20643;-68
2023/03/12 02:21:34;;;;;;;0.85;0.85;;;0.60;91.50;;;;;;5066312;28;20234;-69
2023/03/12 02:24:08;;;;;;;1.50;1.33;;;0.70;91.30;;;;;;5068899;28;20536;-67
2023/03/12 02:26:39;;;;;;;0.50;0.50;;;0.80;91.40;;;;;;5068867;28;20661;-68
2023/03/12 02:29:08;;;;;;;1.98;0.98;;;0.70;91.10;;;;;;5067416;28;20196;-68
2023/03/12 02:31:42;;;;;;;1.10;1.08;;;0.70;91.00;;;;;;5068632;28;20223;-67
2023/03/12 02:34:10;;;;;;;0.70;0.70;;;0.70;91.10;;;;;;5069522;28;20199;-68
2023/03/12 02:36:38;;;;;;;0.70;0.70;;;0.80;90.90;;;;;;5070077;28;20207;-68
2023/03/12 02:39:05;;;;;;;0.65;0.65;;;0.80;91.00;;;;;;5068456;28;20266;-67
2023/03/12 02:41:37;;;;;;;1.35;0.90;;;0.80;91.00;;;;;;5069188;28;20219;-68
2023/03/12 02:44:10;;;;;;;0.82;0.82;;;0.70;91.00;;;;;;5069406;28;20577;-68
2023/03/12 02:46:41;;;;;;;0.68;0.68;;;0.70;91.00;;;;;;5069728;28;20230;-67
2023/03/12 02:49:11;;;;;;;1.90;1.80;;;0.70;90.90;;;;;;5068874;28;20226;-68
2023/03/12 02:51:39;;;;;;;0.50;0.50;;;0.70;90.90;;;;;;5069834;28;20310;-69
2023/03/12 02:54:06;;;;;;;0.80;0.52;;;0.70;91.00;;;;;;5068349;28;20195;-68
2023/03/12 02:56:35;;;;;;;1.30;1.20;;;0.70;91.10;;;;;;5068452;28;20322;-68
2023/03/12 02:59:05;;;;;;;0.60;0.60;;;0.60;90.80;;;;;;5067072;28;20223;-68
2023/03/12 03:01:34;;;;;;;1.92;1.83;;;0.90;99.90;;;;;;5069172;28;20627;-67
2023/03/12 03:04:02;;;;;;;5.03;2.13;;;0.80;91.10;;;;;;5068891;28;20231;-67
2023/03/12 03:06:31;;;;;;;1.30;1.13;;;1.00;99.90;;;;;;5068759;28;20593;-69
2023/03/12 03:08:58;;;;;;;2.92;1.65;;;0.80;91.30;;;;;;5067758;28;20288;-68
2023/03/12 03:11:25;;;;;;;0.85;0.68;;;0.80;91.30;;;;;;5067820;28;20571;-68
2023/03/12 03:13:53;;;;;;;1.33;1.23;;;0.80;91.30;;;;;;5068562;28;20196;-68
2023/03/12 03:16:22;;;;;;;3.90;1.10;;;0.80;91.10;;;;;;5068917;28;20293;-67
2023/03/12 03:18:50;;;;;;;2.05;1.67;;;1.30;99.90;;;;;;5067026;28;20246;-68
2023/03/12 03:21:17;;;;;;;0.60;0.60;;;0.70;91.10;;;;;;5066376;28;20784;-66
2023/03/12 03:23:45;;;;;;;2.33;2.13;;;0.90;99.90;;;;;;5067673;28;20217;-68
2023/03/12 03:26:14;;;;;;;0.40;0.40;;;0.80;99.90;;;;;;5067800;28;20711;-68
2023/03/12 03:28:42;;;;;;;0.30;0.30;;;0.80;99.90;;;;;;5067483;28;20269;-67
2023/03/12 03:31:09;;;;;;;1.48;1.40;;;0.80;91.10;;;;;;5067562;28;20223;-67
2023/03/12 03:33:40;;;;;;;1.08;0.98;;;0.80;99.90;;;;;;5066366;28;20210;-69
2023/03/12 03:36:12;;;;;;;2.65;2.45;;;0.80;91.30;;;;;;5067895;28;20214;-68
2023/03/12 03:38:39;;;;;;;0.50;0.50;;;0.80;91.40;;;;;;5067964;28;20528;-69
2023/03/12 03:41:08;;;;;;;2.13;2.03;;;0.80;91.50;;;;;;5068480;28;20229;-67
2023/03/12 03:43:34;;;;;;;0.85;0.75;;;0.80;91.50;;;;;;5067986;28;20180;-67
2023/03/12 03:46:05;;;;;;;0.30;0.30;;;0.80;91.60;;;;;;5068141;28;20230;-67
2023/03/12 03:48:33;;;;;;;1.50;0.98;;;0.90;91.60;;;;;;5067258;28;20203;-67
2023/03/12 03:51:02;;;;;;;0.65;0.65;;;1.00;91.50;;;;;;5067044;28;20241;-68
2023/03/12 03:53:29;;;;;;;0.85;0.85;;;1.00;91.50;;;;;;5067973;28;20606;-67
2023/03/12 03:55:57;;;;;;;5.07;1.58;;;0.40;99.90;;;;;;5067678;28;20230;-68
2023/03/12 03:58:25;;;;;;;1.08;1.05;;;0.90;91.80;;;;;;5067091;28;20531;-67
2023/03/12 04:00:54;;;;;;;1.10;1.10;;;0.90;98.40;;;;;;5067498;28;20215;-67
2023/03/12 04:03:21;;;;;;;1.13;1.13;;;0.80;99.90;;;;;;5067273;28;20649;-68
2023/03/12 04:05:54;;;;;;;0.73;0.73;;;0.90;98.70;;;;;;5065967;28;20271;-68
2023/03/12 04:08:23;;;;;;;0.60;0.60;;;1.10;99.20;;;;;;5066564;28;20275;-68
2023/03/12 04:10:50;;;;;;;0.70;0.70;;;1.30;99.90;;;;;;5067079;28;20230;-69
2023/03/12 04:13:17;;;;;;;0.63;0.63;;;1.00;92.00;;;;;;5067232;28;20557;-68
2023/03/12 04:15:47;;;;;;;1.83;1.50;;;1.10;91.80;;;;;;5066839;28;20221;-67
2023/03/12 04:18:13;;;;;;;0.73;0.73;;;1.10;91.90;;;;;;5067748;28;20234;-68
2023/03/12 04:20:40;;;;;;;0.68;0.68;;;1.10;91.90;;;;;;5065807;28;20229;-67
2023/03/12 04:23:07;;;;;;;0.40;0.38;;;1.00;91.80;;;;;;5066610;28;20282;-68
2023/03/12 04:25:35;;;;;;;1.10;0.70;;;1.10;91.80;;;;;;5067096;28;20754;-68
2023/03/12 04:28:02;;;;;;;0.50;0.50;;;1.00;92.00;;;;;;5066093;28;20199;-68
2023/03/12 04:30:29;;;;;;;1.83;1.83;;;1.00;92.10;;;;;;5065270;28;20265;-68
2023/03/12 04:32:56;;;;;;;0.82;0.82;;;1.00;92.30;;;;;;5067180;28;20200;-67
2023/03/12 04:35:23;;;;;;;0.50;0.50;;;1.00;99.90;;;;;;5067503;28;20214;-69
2023/03/12 04:37:51;;;;;;;0.75;0.75;;;1.10;92.40;;;;;;5066984;28;20191;-67
2023/03/12 04:40:19;;;;;;;1.25;1.15;;;1.10;92.70;;;;;;5066405;28;20569;-68
2023/03/12 04:42:47;;;;;;;0.80;0.80;;;1.60;99.90;;;;;;5065563;28;20215;-67
2023/03/12 04:45:15;;;;;;;0.93;0.93;;;1.20;92.50;;;;;;5065793;28;20211;-69
2023/03/12 04:47:41;;;;;;;0.80;0.80;;;1.20;99.90;;;;;;5067076;28;20195;-67
2023/03/12 04:50:09;;;;;;;1.13;0.50;;;1.20;99.90;;;;;;5065290;28;20713;-68
2023/03/12 04:52:36;;;;;;;0.50;0.50;;;1.20;99.90;;;;;;5067645;28;20310;-67
2023/03/12 04:55:03;;;;;;;0.98;0.75;;;1.30;99.90;;;;;;5064897;28;20627;-69
2023/03/12 04:57:30;;;;;;;2.13;2.00;;;1.40;99.90;;;;;;5066581;28;20211;-67
2023/03/12 04:59:58;;;;;;;0.85;0.85;;;1.30;99.90;;;;;;5065621;28;20202;-68
2023/03/12 05:02:26;;;;;;;1.35;1.25;;;1.40;92.50;;;;;;5065897;28;20220;-69
2023/03/12 05:04:55;;;;;;;0.65;0.65;;;1.40;92.50;;;;;;5066197;28;20210;-68
2023/03/12 05:07:22;;;;;;;1.50;1.40;;;1.50;97.80;;;;;;5067081;28;20223;-68
2023/03/12 05:09:49;;;;;;;0.88;0.88;;;1.50;92.30;;;;;;5065708;28;20279;-69
2023/03/12 05:12:16;;;;;;;1.17;1.08;;;1.40;92.20;;;;;;5065743;28;20226;-67
2023/03/12 05:14:42;;;;;;;0.75;0.75;;;1.00;99.90;;;;;;5063300;28;20539;-68
2023/03/12 05:17:11;;;;;;;2.75;2.65;;;2.10;99.60;;;;;;5065691;28;20229;-67
2023/03/12 05:19:37;;;;;;;1.92;1.63;;;0.80;99.90;;;;;;5066407;28;20194;-67
2023/03/12 05:22:04;;;;;;;4.38;1.67;;;1.40;99.50;;;;;;5063432;28;20607;-67
2023/03/12 05:24:31;;;;;;;0.70;0.60;;;1.80;98.50;;;;;;5066871;28;20214;-68
2023/03/12 05:26:58;;;;;;;0.40;0.38;;;1.50;99.90;;;;;;5065864;28;20234;-67
2023/03/12 05:29:25;;;;;;;0.60;0.50;;;1.50;92.50;;;;;;5065990;28;20199;-67
2023/03/12 05:31:52;;;;;;;0.50;0.50;;;1.60;99.90;;;;;;5065904;28;20240;-67
2023/03/12 05:34:20;;;;;;;1.60;0.95;;;1.50;92.60;;;;;;5065333;28;20192;-67
2023/03/12 05:36:47;;;;;;;4.95;1.27;;;1.70;99.90;;;;;;5064807;28;20219;-68
2023/03/12 05:39:13;;;;;;;0.55;0.55;;;1.50;93.40;;;;;;5065720;28;20673;-67
2023/03/12 05:41:40;;;;;;;0.50;0.50;;;1.70;99.90;;;;;;5066281;28;20241;-68
2023/03/12 05:44:07;;;;;;;0.63;0.63;;;1.50;94.30;;;;;;5066236;28;20282;-67
2023/03/12 05:46:34;;;;;;;0.60;0.60;;;1.60;94.60;;;;;;5066264;28;20243;-67
2023/03/12 05:49:00;;;;;;;0.90;0.63;;;1.70;94.80;;;;;;5065434;28;20195;-68
2023/03/12 05:51:29;;;;;;;0.68;0.68;;;2.00;99.90;;;;;;5066014;28;20223;-68
2023/03/12 05:53:55;;;;;;;1.25;1.15;;;1.80;99.90;;;;;;5065836;28;20188;-68
2023/03/12 05:56:22;;;;;;;0.50;0.50;;;1.80;95.30;;;;;;5065946;28;20211;-69
2023/03/12 05:58:49;;;;;;;0.60;0.60;;;1.70;95.10;;;;;;5065119;28;20191;-67
2023/03/12 06:01:18;;;;;;;1.10;1.10;;;2.70;99.90;;;;;;5066502;28;20223;-68
2023/03/12 06:03:45;;;;;;;1.50;1.40;;;1.70;99.90;;;;;;5065633;28;20199;-67
2023/03/12 06:06:13;;;;;;;0.40;0.40;;;1.60;99.90;;;;;;5066003;28;20245;-67
2023/03/12 06:08:42;;;;;;;2.17;2.00;;;1.60;99.90;;;;;;5064824;28;20209;-68
2023/03/12 06:11:10;;;;;;;1.00;0.88;;;2.20;99.90;;;;;;5065858;28;20217;-68
2023/03/12 06:13:37;;;;;;;0.63;0.50;;;1.50;99.90;;;;;;5066291;28;20210;-68
2023/03/12 06:16:05;;;;;;;0.73;0.73;;;1.60;99.90;;;;;;5065218;28;20245;-68
2023/03/12 06:18:32;;;;;;;1.55;0.98;;;1.60;96.60;;;;;;5065450;28;20199;-67
2023/03/12 06:21:09;;;;;;;1.50;1.27;;;1.80;99.90;;;;;;5064932;28;20219;-68
2023/03/12 06:23:37;;;;;;;1.08;0.98;;;1.70;99.90;;;;;;5064806;28;20194;-68
2023/03/12 06:26:06;;;;;;;0.75;0.75;;;2.40;99.90;;;;;;5064820;28;20356;-69
2023/03/12 06:28:33;;;;;;;1.40;1.20;;;1.80;97.00;;;;;;5064174;28;20230;-68
2023/03/12 06:31:00;;;;;;;1.95;1.23;;;2.50;99.90;;;;;;5065214;28;20884;-68
2023/03/12 06:33:27;;;;;;;1.15;1.15;;;1.90;99.90;;;;;;5066270;28;20195;-67
2023/03/12 06:35:55;;;;;;;2.75;1.25;;;1.80;99.90;;;;;;5065831;28;20723;-67
2023/03/12 06:38:22;;;;;;;0.40;0.40;;;1.70;99.90;;;;;;5064440;28;20202;-68
2023/03/12 06:40:56;;;;;;;1.02;0.80;;;1.50;99.90;;;;;;5065982;28;20220;-68
2023/03/12 06:43:25;;;;;;;0.68;0.68;;;1.80;98.10;;;;;;5064957;28;20195;-69
2023/03/12 06:45:52;;;;;;;0.68;0.60;;;2.00;99.90;;;;;;5065741;28;20242;-68
2023/03/12 06:48:18;;;;;;;2.65;2.45;;;2.00;99.90;;;;;;5065590;28;20912;-68
2023/03/12 06:50:45;;;;;;;1.27;0.80;;;2.00;97.70;;;;;;5065130;28;21008;-67
2023/03/12 06:53:12;;;;;;;0.80;0.80;;;2.00;97.80;;;;;;5066894;28;20194;-68
2023/03/12 06:55:39;;;;;;;1.13;0.68;;;2.50;98.20;;;;;;5068695;28;20227;-68
2023/03/12 06:58:06;;;;;;;1.00;1.00;;;1.90;99.90;;;;;;5067006;28;20203;-68
2023/03/12 07:00:34;;;;;;;0.50;0.50;;;2.00;99.90;;;;;;5068509;28;20227;-68
2023/03/12 07:03:00;;;;;;;1.50;1.10;;;2.10;99.90;;;;;;5068558;28;20192;-68
2023/03/12 07:05:27;;;;;;;0.90;0.90;;;1.50;99.90;;;;;;5068466;28;20584;-68
2023/03/12 07:07:54;;;;;;;0.85;0.85;;;2.10;99.90;;;;;;5068490;28;20950;-68
2023/03/12 07:10:22;;;;;;;0.70;0.70;;;2.20;99.90;;;;;;5067389;28;20277;-69
2023/03/12 07:12:49;;;;;;;0.85;0.85;;;2.10;99.90;;;;;;5068476;28;20199;-68
2023/03/12 07:15:16;;;;;;;0.43;0.43;;;2.00;99.90;;;;;;5068394;28;20206;-68
2023/03/12 07:17:44;;;;;;;0.93;0.93;;;2.10;99.90;;;;;;5065737;28;20203;-68
2023/03/12 07:20:12;;;;;;;1.73;1.60;;;2.10;99.90;;;;;;5053441;28;20207;-68
2023/03/12 07:22:39;;;;;;;0.75;0.75;;;2.40;99.90;;;;;;5063043;28;20202;-69
2023/03/12 07:25:07;;;;;;;3.00;1.33;;;2.10;99.90;;;;;;5066261;28;20196;-68
2023/03/12 07:27:33;;;;;;;1.48;1.45;;;2.10;99.90;;;;;;5066541;28;20233;-68
2023/03/12 07:30:00;;;;;;;1.38;1.38;;;2.30;99.90;;;;;;5064142;28;20208;-68
2023/03/12 07:32:27;;;;;;;0.70;0.50;;;1.80;99.90;;;;;;5067681;28;20219;-67
2023/03/12 07:34:55;;;;;;;0.93;0.75;;;2.10;99.90;;;;;;5068775;28;20198;-67
2023/03/12 07:37:22;;;;;;;1.00;0.98;;;1.70;99.90;;;;;;5067096;28;20219;-68
2023/03/12 07:39:51;;;;;;;1.48;1.38;;;1.60;99.90;;;;;;5067550;28;20290;-68
2023/03/12 07:42:18;;;;;;;0.60;0.60;;;1.30;99.90;;;;;;5067106;28;20222;-68
2023/03/12 07:44:45;;;;;;;1.33;1.33;;;2.10;99.90;;;;;;5068550;28;20199;-68
2023/03/12 07:47:12;;;;;;;2.47;1.95;;;2.00;99.90;;;;;;5066727;28;20341;-68
2023/03/12 07:49:40;;;;;;;1.70;1.60;;;2.90;99.90;;;;;;5066412;28;20204;-69
2023/03/12 07:52:10;;;;;;;0.90;0.90;;;2.30;99.90;;;;;;5064815;28;20219;-68
2023/03/12 07:54:38;;;;;;;1.08;0.70;;;2.30;99.90;;;;;;5067024;28;20199;-67
2023/03/12 07:57:05;;;;;;;0.88;0.88;;;2.30;99.90;;;;;;5064951;28;20592;-69
2023/03/12 07:59:32;;;;;;;2.45;2.35;;;2.40;99.90;;;;;;5065088;28;20218;-67
2023/03/12 08:01:59;;;;;;;1.63;1.52;;;2.90;99.90;;;;;;5063491;28;20214;-67
2023/03/12 08:04:25;;;;;;;0.68;0.68;;;2.70;99.90;;;;;;5066413;28;20191;-67
2023/03/12 08:06:52;;;;;;;1.10;1.00;;;2.80;99.90;;;;;;5063488;28;20731;-68
2023/03/12 08:09:20;;;;;;;1.98;1.85;;;3.00;99.90;;;;;;5061434;28;20552;-68
2023/03/12 08:11:47;;;;;;;3.20;1.83;;;3.90;99.90;;;;;;5064058;28;20227;-67
2023/03/12 08:14:14;;;;;;;0.40;0.40;;;3.10;99.90;;;;;;5060180;28;20204;-67
2023/03/12 08:16:41;;;;;;;0.63;0.63;;;;;;;;;;5051849;28;20242;-67
2023/03/12 08:19:08;;;;;;;0.43;0.43;;;;;;;;;;5064873;28;20211;-66
2023/03/12 08:21:35;;;;;;;0.70;0.70;;;2.90;99.90;;;;;;5064576;28;20309;-67
2023/03/12 08:24:02;;;;;;;0.43;0.43;;;3.20;99.90;;;;;;5065411;28;20191;-66
2023/03/12 08:26:30;;;;;;;0.80;0.80;;;3.20;99.90;;;;;;5065071;28;20233;-66
2023/03/12 08:28:59;;;;;;;2.50;2.33;;;3.20;99.90;;;;;;5067738;28;20195;-66
2023/03/12 08:31:25;;;;;;;1.10;0.80;;;3.30;99.90;;;;;;5066466;28;20710;-66
2023/03/12 08:33:52;;;;;;;2.17;1.70;;;3.20;99.90;;;;;;5066302;28;20203;-67
2023/03/12 08:36:19;;;;;;;2.05;1.95;;;3.40;99.90;;;;;;5065043;28;20219;-67
2023/03/12 08:38:46;;;;;;;6.38;2.38;;;3.40;99.90;;;;;;5065866;28;20563;-66
2023/03/12 08:41:13;;;;;;;1.73;1.63;;;3.50;99.90;;;;;;5066879;28;20206;-66
2023/03/12 08:43:41;;;;;;;1.05;0.82;;;3.50;99.90;;;;;;5066915;28;20194;-66
2023/03/12 08:46:08;;;;;;;2.03;1.65;;;3.50;99.90;;;;;;5060550;28;20231;-66
2023/03/12 08:48:35;;;;;;;0.90;0.90;;;3.40;99.90;;;;;;5063394;28;20204;-67
2023/03/12 08:51:04;;;;;;;0.90;0.90;;;3.70;99.90;;;;;;5065068;28;20268;-67
2023/03/12 08:53:32;;;;;;;2.50;1.67;;;3.80;99.90;;;;;;5063202;28;20252;-69
2023/03/12 08:55:59;;;;;;;2.85;2.00;;;3.90;99.90;;;;;;5062188;28;20757;-69
2023/03/12 08:58:27;;;;;;;5.40;2.88;;;4.00;99.90;;;;;;5065419;28;20196;-69
2023/03/12 09:00:55;;;;;;;1.52;1.42;;;4.80;99.90;;;;;;5063641;28;20323;-67
2023/03/12 09:03:23;;;;;;;1.55;1.45;;;4.20;99.90;;;;;;5065869;28;20195;-68
2023/03/12 09:05:51;;;;;;;0.88;0.88;;;4.20;99.90;;;;;;5066352;28;20229;-67
2023/03/12 09:08:18;;;;;;;1.23;1.13;;;4.30;99.90;;;;;;5065239;28;20219;-67
2023/03/12 09:10:49;;;;;;;1.45;1.35;;;4.40;99.90;;;;;;5063742;28;20219;-67
2023/03/12 09:13:16;;;;;;;1.60;1.50;;;4.50;99.90;;;;;;5064941;28;20627;-68
2023/03/12 09:15:43;;;;;;;1.40;1.30;;;4.60;99.90;;;;;;5060837;28;20602;-68
2023/03/12 09:18:11;;;;;;;1.38;1.13;;;4.70;99.90;;;;;;5064042;28;20206;-67
2023/03/12 09:20:38;;;;;;;1.65;1.38;;;4.70;99.90;;;;;;5064364;28;20219;-68
2023/03/12 09:23:04;;;;;;;2.85;2.60;;;4.80;99.90;;;;;;5065003;28;20221;-69
2023/03/12 09:25:32;;;;;;;2.15;1.10;;;4.90;99.90;;;;;;5065140;28;20238;-68
2023/03/12 09:28:03;;;;;;;2.60;2.33;;;5.20;99.90;;;;;;5063988;28;20325;-70
2023/03/12 09:30:30;;;;;;;2.65;1.40;;;5.10;99.90;;;;;;5065198;28;20216;-70
2023/03/12 09:32:59;;;;;;;3.70;1.83;;;5.30;99.90;;;;;;5065622;28;20206;-70
2023/03/12 09:35:27;;;;;;;1.83;1.70;;;5.40;99.90;;;;;;5064745;28;20223;-69
2023/03/12 09:37:54;;;;;;;2.75;2.47;;;5.50;99.90;;;;;;5065784;28;20199;-68
2023/03/12 09:40:23;;;;;;;2.15;1.65;;;5.60;99.90;;;;;;5062513;28;21769;-69
2023/03/12 09:42:53;;;;;;;3.67;2.70;;;5.80;99.90;;;;;;5063232;28;20654;-67
2023/03/12 09:45:26;;;;;;;2.28;1.75;;;5.70;99.90;;;;;;5060931;28;20611;-70
2023/03/12 09:47:57;;;;;;;1.63;1.48;;;5.70;99.90;;;;;;5063322;28;20241;-71
2023/03/12 09:50:32;;;;;;;2.20;1.45;;;6.10;99.90;;;;;;5063650;28;20247;-68
2023/03/12 09:53:02;;;;;;;1.92;1.60;;;6.00;99.90;;;;;;5063916;28;20199;-69
2023/03/12 09:55:36;;;;;;;2.50;2.35;;;6.10;99.90;;;;;;5063027;28;20211;-68
2023/03/12 09:58:04;;;;;;;1.55;1.45;;;6.20;99.90;;;;;;5063950;28;20203;-68
2023/03/12 10:00:36;;;;;;;1.48;1.38;;;6.50;99.90;;;;;;5062342;28;20215;-70
2023/03/12 10:03:38;;;;;;;2.25;1.45;;;6.40;99.90;;;;;;5063420;28;20199;-71
2023/03/12 10:06:13;;;;;;;1.85;1.75;;;6.50;99.90;;;;;;5061998;28;20742;-69
2023/03/12 10:08:53;;;;;;;1.30;1.15;;;6.60;99.90;;;;;;5064874;28;20230;-68
2023/03/12 10:11:31;;;;;;;2.53;1.70;;;6.90;99.90;;;;;;5062520;28;20235;-69
2023/03/12 10:14:15;;;;;;;3.00;2.83;;;7.00;99.90;;;;;;5064878;28;20191;-70
2023/03/12 10:16:51;;;;;;;1.07;0.97;;;7.10;99.90;;;;;;5064824;28;20586;-69
2023/03/12 10:19:41;;;;;;;1.43;1.13;;;7.40;99.90;;;;;;5063504;28;21410;-68
2023/03/12 10:22:20;;;;;;;1.00;0.93;;;7.40;99.90;;;;;;5064706;28;20649;-68
2023/03/12 10:24:58;;;;;;;0.30;0.30;;;7.50;99.90;;;;;;5066383;28;20976;-68
2023/03/12 10:27:29;;;;;;;0.70;0.70;;;7.70;99.90;;;;;;5066486;28;20660;-70
2023/03/12 10:29:56;;;;;;;0.60;0.43;;;8.10;99.90;;;;;;5069529;28;20681;-68
2023/03/12 10:32:30;;;;;;;0.80;0.63;;;8.00;99.90;;;;;;5068991;28;21237;-68
2023/03/12 10:35:00;;;;;;;0.40;0.40;;;8.20;99.90;;;;;;5069649;28;20720;-68
2023/03/12 10:37:31;;;;;;;0.80;0.40;;;8.50;99.90;;;;;;5069451;28;20702;-68
2023/03/12 10:39:59;;;;;;;3.20;1.45;;;8.80;99.90;;;;;;5069786;28;20834;-69
2023/03/12 10:42:28;;;;;;;1.47;0.70;;;8.90;99.90;;;;;;5068365;28;20245;-69
2023/03/12 10:44:59;;;;;;;0.60;0.57;;;8.70;99.90;;;;;;5068438;28;20633;-70
2023/03/12 10:47:35;;;;;;;1.00;1.00;;;7.70;99.90;;;;;;5068307;28;20676;-69
2023/03/12 10:50:17;;;;;;;0.43;0.43;;;8.50;99.90;;;;;;5067883;28;20610;-69
2023/03/12 10:52:45;;;;;;;0.80;0.50;;;8.30;99.90;;;;;;5068603;28;20733;-68
2023/03/12 10:55:20;;;;;;;0.50;0.30;;;8.60;99.90;;;;;;5068975;28;21063;-70
2023/03/12 10:57:47;;;;;;;0.97;0.87;;;;;;;;;;5069598;28;20712;-70
2023/03/12 11:00:21;;;;;;;1.63;1.53;;;8.40;99.90;;;;;;5069872;28;21122;-70
2023/03/12 11:02:57;;;;;;;1.40;1.03;;;8.60;99.90;;;;;;5070112;28;20640;-70
2023/03/12 11:05:28;;;;;;;0.60;0.60;;;9.00;99.90;;;;;;5070598;28;20653;-69
2023/03/12 11:07:58;;;;;;;0.70;0.70;;;9.20;99.90;;;;;;5068131;28;21245;-69
2023/03/12 11:10:27;;;;;;;0.85;0.85;;;9.50;99.90;;;;;;5067543;28;20749;-68
2023/03/12 11:13:03;;;;;;;0.70;0.70;;;9.40;99.90;;;;;;5070722;28;20195;-68
2023/03/12 11:15:38;;;;;;;0.73;0.73;;;9.80;99.90;;;;;;5066341;28;20660;-69
2023/03/12 11:18:40;;;;;;;0.97;0.60;;;9.80;99.90;;;;;;5069799;28;21265;-70
2023/03/12 11:21:27;;;;;;;0.70;0.70;;;9.80;99.90;;;;;;5068632;28;20644;-68
2023/03/12 11:24:08;;;;;;;0.83;0.83;;;9.40;99.90;;;;;;5065826;28;20633;-69
2023/03/12 11:26:39;;;;;;;0.50;0.30;;;9.90;99.90;;;;;;5068759;28;21236;-69
2023/03/12 11:29:16;;;;;;;0.77;0.77;;;9.70;99.90;;;;;;5068507;28;20667;-69
2023/03/12 11:31:50;;;;;;;0.57;0.57;;;9.90;99.90;;;;;;5069691;28;20651;-68
2023/03/12 11:34:23;;;;;;;0.87;0.87;;;10.00;99.90;;;;;;5069004;28;20617;-69
2023/03/12 11:36:56;;;;;;;0.40;0.20;;;10.10;99.90;;;;;;5069307;28;20649;-68
2023/03/12 11:39:35;;;;;;;1.73;0.73;;;10.20;99.90;;;;;;5068260;28;20704;-67
2023/03/12 11:42:18;;;;;;;0.43;0.43;;;10.40;99.90;;;;;;5065873;28;20961;-71
2023/03/12 11:44:58;;;;;;;0.53;0.47;;;10.50;99.90;;;;;;5063842;28;20621;-72
2023/03/12 11:47:39;;;;;;;0.67;0.57;;;11.40;99.90;;;;;;5064679;28;20673;-70
2023/03/12 11:50:21;;;;;;;1.20;1.10;;;10.90;99.90;;;;;;5067281;28;21298;-72
2023/03/12 11:53:13;;;;;;;0.40;0.40;;;10.80;99.90;;;;;;5060680;28;20679;-70
2023/03/12 11:55:55;;;;;;;0.30;0.20;;;10.70;99.90;;;;;;5062119;28;20668;-70
2023/03/12 11:58:54;;;;;;;0.40;0.30;;;10.50;99.90;;;;;;5066110;28;20610;-67
2023/03/12 12:01:30;;;;;;;0.60;0.50;;;10.90;99.90;;;;;;5060488;28;20654;-69
2023/03/12 12:04:18;;;;;;;0.50;0.30;;;10.70;99.90;;;;;;5067949;28;21183;-69
2023/03/12 12:06:58;;;;;;;0.30;0.20;;;11.10;99.90;;;;;;5065745;28;20641;-69
2023/03/12 12:09:35;;;;;;;1.03;0.50;;;10.60;99.90;;;;;;5064388;28;20711;-72
2023/03/12 12:12:17;;;;;;;1.03;0.50;;;10.40;99.90;;;;;;5060632;28;20633;-69
2023/03/12 12:15:00;;;;;;;0.40;0.20;;;10.50;99.90;;;;;;5063750;28;20625;-69
2023/03/12 12:17:38;;;;;;;0.30;0.20;;;11.10;99.90;;;;;;5062828;28;20996;-68
2023/03/12 12:20:21;;;;;;;2.70;1.47;;;11.20;99.90;;;;;;5060541;28;20652;-67
2023/03/12 12:22:59;;;;;;;1.07;0.40;;;11.20;99.80;;;;;;5061805;28;20668;-69
2023/03/12 12:25:42;;;;;;;0.40;0.40;;;11.30;99.50;;;;;;5060696;28;21337;-70
2023/03/12 12:28:28;;;;;;;0.60;0.60;;;11.20;99.90;;;;;;5063778;28;20652;-69
2023/03/12 12:31:07;;;;;;;0.40;0.30;;;11.60;99.70;;;;;;5055859;28;21222;-69
2023/03/12 12:33:56;;;;;;;0.80;0.80;;;12.20;99.90;;;;;;5063995;28;20629;-70
2023/03/12 12:36:27;;;;;;;0.40;0.40;;;11.70;99.90;;;;;;5061138;28;20661;-72
2023/03/12 12:39:00;;;;;;;0.30;0.20;;;11.90;97.60;;;;;;5066912;28;20637;-70
2023/03/12 12:41:31;;;;;;;2.87;0.47;;;11.90;97.40;;;;;;5064209;28;20653;-71
2023/03/12 12:44:02;;;;;;;1.50;0.40;;;11.80;97.10;;;;;;5067477;28;20626;-70
2023/03/12 12:46:34;;;;;;;1.27;0.90;;;11.80;97.30;;;;;;5065971;28;20657;-71
2023/03/12 12:49:04;;;;;;;0.80;0.80;;;11.80;97.80;;;;;;5062704;28;20653;-71
2023/03/12 12:51:35;;;;;;;0.30;0.20;;;11.90;97.80;;;;;;5066391;28;20977;-70
2023/03/12 12:54:08;;;;;;;0.40;0.30;;;11.90;96.60;;;;;;5063932;28;20622;-70
2023/03/12 12:56:47;;;;;;;1.70;1.03;;;11.60;96.80;;;;;;5066991;28;20687;-71
2023/03/12 12:59:30;;;;;;;1.87;0.90;;;11.50;97.20;;;;;;5065374;28;20625;-71
2023/03/12 13:01:59;;;;;;;0.93;0.53;;;11.50;99.90;;;;;;5068256;28;20649;-70
2023/03/12 13:04:30;;;;;;;0.80;0.80;;;11.30;96.30;;;;;;5066497;28;20619;-70
2023/03/12 13:07:00;;;;;;;0.50;0.50;;;11.40;97.00;;;;;;5066179;28;20649;-70
2023/03/12 13:09:38;;;;;;;0.40;0.40;;;11.30;97.10;;;;;;5067691;28;20688;-71